Flight Track Log - Related Links

Times and Time Zones

All times are in EDT time to prevent confusion due to time zone crossing. See the MAL7050 flight status page for this flight to view local times or setup timezone preferences in your user account.

Time Position Orientation Groundspeed Altitude Reporting Facility
EDT Latitude Longitude Course Direction KTS MPH feet Rate Location/Type
Fri 05:14:35 AM 49.9667 -97.4000 285° West 260 299 6,500  Level Winnipeg Center
Fri 05:15:35 AM 49.9833 -97.5167 283° West 270 311 9,900 2,550 Climbing Winnipeg Center
Fri 05:16:35 AM 50.0000 -97.6500 281° West 310 357 11,600 2,050 Climbing Winnipeg Center
Fri 05:17:35 AM 50.0167 -97.8000 280° West 350 403 14,000 2,400 Climbing Winnipeg Center
Fri 05:18:35 AM 50.0500 -97.9333 291° West 360 414 16,400 2,250 Climbing Winnipeg Center
Fri 05:19:00 AM 50.0920 -98.3512 281° West  Level FlightAware Approximate
Fri 05:19:35 AM 50.0500 -98.0833 270° West 370 426 18,500  Level Winnipeg Center
Fri 05:20:35 AM 50.0833 -98.2667 286° West 380 437 20,900 2,300 Climbing Winnipeg Center
Fri 05:21:35 AM 50.1000 -98.4333 279° West 380 437 23,100 2,150 Climbing Winnipeg Center
Fri 05:22:35 AM 50.1167 -98.5833 280° West 380 437 25,200 1,750 Climbing Winnipeg Center
Fri 05:23:35 AM 50.1500 -98.7333 289° West 390 449 26,600 1,450 Climbing Winnipeg Center
Fri 05:24:35 AM 50.1667 -98.9167 278° West 400 460 28,100 1,550 Climbing Winnipeg Center
Fri 05:25:35 AM 50.2000 -99.1167 285° West 410 472 29,700 1,650 Climbing Winnipeg Center
Fri 05:26:35 AM 50.2000 -99.2667 270° West 400 460 31,400 1,600 Climbing Winnipeg Center
Fri 05:27:35 AM 50.2333 -99.4500 286° West 390 449 32,900 1,450 Climbing Winnipeg Center
Fri 05:28:35 AM 50.2500 -99.6167 279° West 390 449 34,300 1,250 Climbing Winnipeg Center
Fri 05:29:35 AM 50.2833 -99.7667 289° West 390 449 35,400 850 Climbing Winnipeg Center
Fri 05:30:35 AM 50.3000 -99.9500 278° West 400 460 36,000 700 Climbing Winnipeg Center
Fri 05:31:35 AM 50.3167 -100.1333 278° West 410 472 36,800 750 Climbing Winnipeg Center
Fri 05:32:35 AM 50.3333 -100.3000 279° West 410 472 37,500 600 Climbing Winnipeg Center
Fri 05:33:35 AM 50.3667 -100.4833 286° West 410 472 38,000 300 Climbing Winnipeg Center
Fri 05:34:35 AM 50.3667 -100.6333 270° West 400 460 38,100 450 Climbing Winnipeg Center
Fri 05:35:35 AM 50.4000 -100.8333 285° West 400 460 38,900 800 Climbing Winnipeg Center
Fri 05:36:35 AM 50.4167 -100.9833 280° West 400 460 39,700 550 Climbing Winnipeg Center
Fri 05:37:35 AM 50.4333 -101.1667 278° West 400 460 40,000 150 Climbing Winnipeg Center
Fri 05:38:35 AM 50.4500 -101.3333 279° West 400 460 40,000  Level Winnipeg Center
Fri 05:39:35 AM 50.4833 -101.5167 286° West 410 472 40,000  Level Winnipeg Center
Fri 05:40:35 AM 50.4833 -101.7000 270° West 410 472 40,000  Level Winnipeg Center
Fri 05:41:35 AM 50.5167 -101.8667 288° West 400 460 40,000  Level Winnipeg Center
Fri 05:42:35 AM 50.5167 -102.0500 270° West 400 460 40,000  Level Winnipeg Center
Fri 05:43:35 AM 50.5500 -102.2167 288° West 400 460 40,000  Level Winnipeg Center
Fri 05:44:35 AM 50.5500 -102.3667 270° West 390 449 40,000  Level Winnipeg Center
Fri 05:45:35 AM 50.5833 -102.5500 286° West 390 449 40,000  Level Winnipeg Center
Fri 05:46:35 AM 50.5833 -102.7167 270° West 400 460 40,000  Level Winnipeg Center
Fri 05:47:35 AM 50.6167 -102.9000 286° West 400 460 40,000  Level Winnipeg Center
Fri 05:48:35 AM 50.6167 -103.0667 270° West 400 460 40,000  Level Winnipeg Center
Fri 05:49:35 AM 50.6500 -103.2500 286° West 410 472 40,000  Level Winnipeg Center
Fri 05:50:35 AM 50.6500 -103.4167 270° West 410 472 40,000  Level Winnipeg Center
Fri 05:51:35 AM 50.6833 -103.6000 286° West 400 460 40,000  Level Winnipeg Center
Fri 05:52:35 AM 50.6833 -103.7833 270° West 400 460 40,000  Level Winnipeg Center
Fri 05:53:35 AM 50.6833 -103.9500 270° West 400 460 40,000  Level Winnipeg Center
Fri 05:54:35 AM 50.7167 -104.1333 286° West 400 460 40,000  Level Winnipeg Center
Fri 05:55:35 AM 50.7333 -104.3000 279° West 400 460 40,000  Level Winnipeg Center
Fri 05:56:35 AM 50.7333 -104.4833 270° West 400 460 40,000  Level Winnipeg Center
Fri 05:57:35 AM 50.7667 -104.6500 288° West 400 460 40,000  Level Winnipeg Center
Fri 05:58:35 AM 50.7667 -104.8333 270° West 400 460 40,000  Level Winnipeg Center
Fri 05:59:35 AM 50.7833 -105.0000 279° West 400 460 40,000  Level Winnipeg Center
Fri 06:00:35 AM 50.8000 -105.1833 278° West 400 460 40,000  Level Winnipeg Center
Fri 06:01:35 AM 50.8167 -105.3500 279° West 400 460 40,000  Level Winnipeg Center
Fri 06:02:35 AM 50.8167 -105.5333 270° West 400 460 40,000  Level Winnipeg Center
Fri 06:03:18 AM 50.8167 -105.6333 270° West 400 460 40,000  Level Edmonton Center
Fri 06:04:18 AM 50.8333 -105.8000 279° West 390 449 40,000  Level Edmonton Center
Fri 06:04:35 AM 50.8333 -105.8833 270° West 400 460 40,000  Level Winnipeg Center
Fri 06:05:35 AM 50.8500 -106.0500 279° West 390 449 40,000  Level Winnipeg Center
Fri 06:06:35 AM 50.8667 -106.2167 279° West 390 449 40,000  Level Winnipeg Center
Fri 06:07:35 AM 50.8667 -106.4000 270° West 390 449 40,000  Level Winnipeg Center
Fri 06:08:18 AM 50.8667 -106.4833 270° West 390 449 40,000  Level Edmonton Center
Fri 06:08:35 AM 50.8833 -106.5667 288° West 390 449 40,000  Level Winnipeg Center
Fri 06:09:35 AM 50.8833 -106.7500 270° West 390 449 40,000  Level Winnipeg Center
Fri 06:10:35 AM 50.9000 -106.9167 279° West 390 449 40,000  Level Winnipeg Center
Fri 06:11:18 AM 50.9000 -107.0000 270° West 390 449 40,000  Level Edmonton Center
Fri 06:12:18 AM 50.9167 -107.1833 278° West 390 449 40,000  Level Edmonton Center
Fri 06:12:35 AM 50.9333 -107.2333 298° West 390 449 40,000  Level Winnipeg Center
Fri 06:13:35 AM 50.9333 -107.4333 270° West 390 449 40,000  Level Winnipeg Center
Fri 06:14:35 AM 50.9500 -107.5833 280° West 390 449 40,000  Level Winnipeg Center
Fri 06:15:35 AM 50.9500 -107.7833 270° West 390 449 40,000  Level Winnipeg Center
Fri 06:16:35 AM 50.9667 -107.9500 279° West 390 449 40,000  Level Winnipeg Center
Fri 06:17:35 AM 50.9667 -108.1333 270° West 400 460 40,000  Level Winnipeg Center
Fri 06:18:18 AM 50.9667 -108.2000 270° West 390 449 40,000  Level Edmonton Center
Fri 06:19:18 AM 50.9667 -108.4000 270° West 390 449 40,000  Level Edmonton Center
Fri 06:19:35 AM 50.9833 -108.4500 298° West 390 449 40,000  Level Winnipeg Center
Fri 06:20:35 AM 51.0000 -108.6500 278° West 390 449 40,000  Level Winnipeg Center
Fri 06:21:18 AM 50.9833 -108.7500 255° West 390 449 40,000  Level Edmonton Center
Fri 06:22:18 AM 51.0000 -108.9000 280° West 390 449 40,000  Level Edmonton Center
Fri 06:22:35 AM 51.0000 -108.9667 270° West 390 449 40,000  Level Winnipeg Center
Fri 06:23:35 AM 51.0167 -109.1667 278° West 390 449 40,000  Level Winnipeg Center
Fri 06:24:35 AM 51.0167 -109.3167 270° West 390 449 40,000  Level Winnipeg Center
Fri 06:25:35 AM 51.0167 -109.4833 270° West 390 449 40,000  Level Winnipeg Center
Fri 06:26:35 AM 51.0000 -109.6667 262° West 390 449 40,000  Level Winnipeg Center
Fri 06:27:35 AM 51.0167 -109.8333 279° West 390 449 40,000  Level Winnipeg Center
Fri 06:28:18 AM 51.0167 -109.9333 270° West 380 437 40,000  Level Edmonton Center
Fri 06:29:18 AM 51.0167 -110.0833 270° West 380 437 40,000  Level Edmonton Center
Fri 06:29:35 AM 51.0167 -110.1833 270° West 390 449 40,000  Level Winnipeg Center
Fri 06:30:35 AM 51.0333 -110.3500 279° West 390 449 40,000  Level Winnipeg Center
Fri 06:31:18 AM 51.0167 -110.4333 252° West 380 437 40,000  Level Edmonton Center
Fri 06:32:18 AM 51.0167 -110.6333 270° West 380 437 40,000  Level Edmonton Center
Fri 06:33:18 AM 51.0167 -110.7833 270° West 380 437 40,000  Level Edmonton Center
Fri 06:34:18 AM 51.0333 -110.9500 279° West 380 437 40,000  Level Edmonton Center
Fri 06:35:18 AM 51.0167 -111.1167 261° West 380 437 40,000  Level Edmonton Center
Fri 06:36:18 AM 51.0167 -111.3000 270° West 380 437 40,000 -600 Level Edmonton Center
Fri 06:37:18 AM 51.0167 -111.4667 270° West 380 437 38,800 -2,050 Descending Edmonton Center
Fri 06:38:18 AM 51.0167 -111.6167 270° West 390 449 35,900 -3,200 Descending Edmonton Center
Fri 06:39:18 AM 51.0167 -111.8333 270° West 410 472 32,400 -3,450 Descending Edmonton Center
Fri 06:40:18 AM 51.0167 -112.0000 270° West 420 483 29,000 -3,100 Descending Edmonton Center
Fri 06:41:18 AM 51.0167 -112.1833 270° West 410 472 26,200 -2,850 Descending Edmonton Center
Fri 06:42:18 AM 51.0167 -112.3833 270° West 400 460 23,300 -2,900 Descending Edmonton Center
Fri 06:43:18 AM 51.0167 -112.5333 270° West 390 449 20,400 -2,750 Descending Edmonton Center
Fri 06:44:18 AM 51.0167 -112.7333 270° West 380 437 17,800 -2,600 Descending Edmonton Center
Fri 06:45:18 AM 51.0000 -112.8833 260° West 380 437 15,200 -2,500 Descending Edmonton Center
Fri 06:46:18 AM 51.0167 -113.0500 279° West 360 414 12,800 -2,250 Descending Edmonton Center
Fri 06:47:18 AM 51.0000 -113.1833 259° West 320 368 10,700 -1,250 Descending Edmonton Center
Fri 06:48:18 AM 51.0000 -113.3167 270° West 280 322 10,300 -600 Descending Edmonton Center
Fri 06:49:18 AM 51.0000 -113.4167 270° West 260 299 9,500 -1,150 Descending Edmonton Center
Fri 06:50:18 AM 51.0000 -113.5667 270° West 270 311 8,000 -1,250 Descending Edmonton Center
Fri 06:51:18 AM 51.0000 -113.6667 270° West 260 299 7,000 -750 Descending Edmonton Center
Fri 06:52:18 AM 51.0000 -113.7667 270° West 230 265 6,500 -450 Descending Edmonton Center
Fri 06:53:18 AM 51.0167 -113.8500 288° West 190 219 6,100 -750 Descending Edmonton Center
Fri 06:54:18 AM 51.0500 -113.9167 309° West 180 207 5,000 -950 Descending Edmonton Center
Fri 06:55:18 AM 51.0667 -113.9833 292° West 140 161 4,200 -800 Descending Edmonton Center

Login

Don't have an account? Register now (free) for customized features, flight alerts, and more!